Mobile Regional Airport Mobile US
ICAO: KMOB
IATA: MOB
Category: Large
Scheduled Services: Yes

Elevation: 219 ft
TransAlt. 18000 ft.

Airport Communications:
APP/DEP:118.5
ATIS:124.75
CLNC DEL:119.85
CTAF:118.3
GND:121.9
ARNG OPS:41.05
AIR:34.5
ANNISTON RDO:122.2
TWR:118.3
UNICOM:122.95

KMOB Zoom In..

If you have problems with the map follow the link
https://www.worldairports.se/pages/airport.php?
ICAO=KMOB

Runways:

(A) RW 14 length 8502 ft width 150 ft
ILS 109.90 / hdg 145

(B) RW 18 length 4376 ft width 150 ft
---- / hdg 181

(C) RW 32 length 8502 ft width 150 ft
ILS 111.50 / hdg 325

(D) RW 36 length 4376 ft width 150 ft
---- / hdg 1

Location; KMOB
Day. 10 / Time. 01.56 Zulu
* Altimeter: 30.00
* Temperature: 21° c. 69.8°f.
* Wind from: 200° Speed 09 kn.
Dewpoint: 19° c.
Visibility: 7 Statute Miles.
Clouds: Overcast 600 ft.

KMOB 100156Z 20009KT 7SM OVC006 21/19 A3000 RMK AO2 SLP156 T02110194


Wind From 200°
Speed 09 kn.

 
 
jpsmedia worldairports.se 2019   terms of use